createdAt,value
2023-04-16T00:01:57.584Z,11.02
2023-04-16T00:04:28.386Z,11.07
2023-04-16T00:06:57.898Z,10.88
2023-04-16T00:09:27.008Z,11.04
2023-04-16T00:11:56.494Z,11.09
2023-04-16T00:14:25.638Z,10.98
2023-04-16T00:16:55.137Z,10.88
2023-04-16T00:19:24.362Z,10.96
2023-04-16T00:21:55.274Z,11.02
2023-04-16T00:24:24.442Z,10.84
2023-04-16T00:26:53.856Z,10.55
2023-04-16T00:29:23.305Z,10.84
2023-04-16T00:31:52.746Z,10.38
2023-04-16T00:34:21.859Z,10.36
2023-04-16T00:36:51.354Z,10.58
2023-04-16T00:39:21.965Z,10.67
2023-04-16T00:41:51.439Z,10.44
2023-04-16T00:44:20.538Z,10.53
2023-04-16T00:46:50.031Z,10.75
2023-04-16T00:49:19.098Z,10.62
2023-04-16T00:51:48.538Z,10.61
2023-04-16T00:54:17.629Z,10.68
2023-04-16T00:56:48.569Z,10.50
2023-04-16T00:59:17.770Z,10.60
2023-04-16T01:01:47.220Z,10.61
2023-04-16T01:04:16.449Z,10.72
2023-04-16T01:06:45.999Z,10.46
2023-04-16T01:09:15.054Z,10.62
2023-04-16T01:11:44.592Z,10.65
2023-04-16T01:14:15.100Z,10.63
2023-04-16T01:16:44.644Z,10.60
2023-04-16T01:19:13.754Z,10.66
2023-04-16T01:21:44.669Z,10.68
2023-04-16T01:24:13.796Z,10.60
2023-04-16T01:26:43.359Z,10.63
2023-04-16T01:29:12.423Z,10.65
2023-04-16T01:31:42.035Z,10.48
2023-04-16T01:34:11.269Z,10.35
2023-04-16T01:36:40.823Z,10.43
2023-04-16T01:39:14.327Z,10.35
2023-04-16T01:41:43.904Z,10.38
2023-04-16T01:44:13.147Z,10.51
2023-04-16T01:46:42.674Z,10.33
2023-04-16T01:49:12.020Z,10.31
2023-04-16T01:51:42.257Z,10.22
2023-04-16T01:54:12.761Z,10.23
2023-04-16T01:56:42.225Z,10.38
2023-04-16T01:59:12.461Z,10.38
2023-04-16T02:01:42.599Z,10.48
2023-04-16T02:04:11.742Z,10.35
2023-04-16T02:06:41.258Z,10.46
2023-04-16T02:09:10.556Z,10.38
2023-04-16T02:11:41.604Z,10.29
2023-04-16T02:14:10.737Z,10.43
2023-04-16T02:16:40.330Z,10.44
2023-04-16T02:19:09.987Z,10.35
2023-04-16T02:21:39.776Z,10.35
2023-04-16T02:24:08.888Z,10.29
2023-04-16T02:26:38.414Z,10.32
2023-04-16T02:29:09.212Z,10.33
2023-04-16T02:31:38.984Z,10.40
2023-04-16T02:34:08.059Z,10.33
2023-04-16T02:36:37.520Z,10.36
2023-04-16T02:39:06.873Z,10.42
2023-04-16T02:41:36.887Z,10.30
2023-04-16T02:44:06.173Z,10.30
2023-04-16T02:46:36.991Z,10.34
2023-04-16T02:49:06.132Z,10.37
2023-04-16T02:51:35.733Z,10.20
2023-04-16T02:54:04.895Z,10.16
2023-04-16T02:56:34.386Z,10.29
2023-04-16T02:59:03.547Z,10.29
2023-04-16T03:01:33.111Z,10.23
2023-04-16T03:04:03.669Z,10.12
2023-04-16T03:06:33.179Z,9.94
2023-04-16T03:09:02.413Z,10.16
2023-04-16T03:11:31.950Z,10.20
2023-04-16T03:14:01.050Z,10.12
2023-04-16T03:16:30.620Z,10.20
2023-04-16T03:18:59.728Z,10.15
2023-04-16T03:21:31.354Z,10.08
2023-04-16T03:24:00.482Z,9.88
2023-04-16T03:26:30.067Z,10.09
2023-04-16T03:28:59.222Z,10.09
2023-04-16T03:31:28.710Z,10.08
2023-04-16T03:33:57.941Z,10.13
2023-04-16T03:36:27.399Z,10.16
2023-04-16T03:38:57.971Z,9.81
2023-04-16T03:41:27.393Z,10.00
2023-04-16T03:43:56.592Z,10.06
2023-04-16T03:46:25.996Z,9.98
2023-04-16T03:48:55.105Z,9.84
2023-04-16T03:51:25.030Z,9.97
2023-04-16T03:53:54.223Z,9.96
2023-04-16T03:56:25.245Z,10.03
2023-04-16T03:58:54.385Z,9.96
2023-04-16T04:01:23.809Z,9.75
2023-04-16T04:03:53.297Z,9.89
2023-04-16T04:06:22.870Z,9.91
2023-04-16T04:08:52.022Z,9.95
2023-04-16T04:11:21.499Z,9.82
2023-04-16T04:13:52.048Z,9.75
2023-04-16T04:16:21.582Z,9.88
2023-04-16T04:18:50.818Z,9.88
2023-04-16T04:21:20.210Z,9.90
2023-04-16T04:23:49.330Z,9.91
2023-04-16T04:26:18.870Z,9.77
2023-04-16T04:28:48.026Z,9.82
2023-04-16T04:31:18.846Z,9.89
2023-04-16T04:33:48.042Z,9.85
2023-04-16T04:36:17.517Z,9.86
2023-04-16T04:38:46.816Z,9.80
2023-04-16T04:41:16.223Z,9.83
2023-04-16T04:43:45.303Z,9.82
2023-04-16T04:46:14.791Z,9.81
2023-04-16T04:48:45.412Z,9.78
2023-04-16T04:51:14.825Z,9.84
2023-04-16T04:53:44.087Z,9.68
2023-04-16T04:56:13.514Z,9.68
2023-04-16T04:58:42.615Z,9.78
2023-04-16T05:01:12.113Z,9.79
2023-04-16T05:03:41.555Z,9.78
2023-04-16T05:06:12.621Z,9.79
2023-04-16T05:08:41.823Z,9.81
2023-04-16T05:11:11.278Z,9.86
2023-04-16T05:13:40.457Z,9.86
2023-04-16T05:16:09.945Z,9.86
2023-04-16T05:18:39.125Z,9.72
2023-04-16T05:21:08.519Z,9.64
2023-04-16T05:23:39.122Z,9.79
2023-04-16T05:26:08.531Z,9.77
2023-04-16T05:28:37.662Z,9.84
2023-04-16T05:31:07.069Z,9.83
2023-04-16T05:33:36.285Z,9.81
2023-04-16T05:36:06.044Z,9.83
2023-04-16T05:38:35.164Z,9.86
2023-04-16T05:41:06.136Z,9.82
2023-04-16T05:43:35.324Z,9.82
2023-04-16T05:46:04.793Z,9.85
2023-04-16T05:48:33.986Z,9.92
2023-04-16T05:51:03.554Z,9.95
2023-04-16T05:53:32.669Z,9.97
2023-04-16T05:56:02.138Z,9.81
2023-04-16T05:58:32.721Z,9.90
2023-04-16T06:01:02.389Z,9.98
2023-04-16T06:03:31.570Z,9.95
2023-04-16T06:06:01.303Z,9.96
2023-04-16T06:08:30.647Z,9.96
2023-04-16T06:11:00.146Z,9.98
2023-04-16T06:13:29.263Z,9.93
2023-04-16T06:16:00.207Z,9.94
2023-04-16T06:18:29.364Z,9.85
2023-04-16T06:20:59.558Z,10.02
2023-04-16T06:23:28.652Z,10.04
2023-04-16T06:25:58.141Z,9.98
2023-04-16T06:28:29.842Z,9.88
2023-04-16T06:31:00.855Z,9.91
2023-04-16T06:33:29.987Z,9.80
2023-04-16T06:35:59.484Z,9.89
2023-04-16T06:38:28.551Z,10.01
2023-04-16T06:40:58.617Z,9.89
2023-04-16T06:43:27.758Z,10.07
2023-04-16T06:45:57.220Z,10.12
2023-04-16T06:48:27.783Z,10.12
2023-04-16T06:50:57.512Z,10.17
2023-04-16T06:53:26.654Z,10.18
2023-04-16T06:55:56.362Z,10.11
2023-04-16T06:58:25.555Z,10.04
2023-04-16T07:00:54.957Z,9.94
2023-04-16T07:03:24.290Z,10.04
2023-04-16T07:05:55.512Z,9.86
2023-04-16T07:08:24.878Z,10.04
2023-04-16T07:10:54.560Z,10.16
2023-04-16T07:13:23.683Z,10.09
2023-04-16T07:15:53.110Z,10.13
2023-04-16T07:18:22.228Z,10.19
2023-04-16T07:20:51.701Z,10.20
2023-04-16T07:23:22.226Z,10.25
2023-04-16T07:25:51.761Z,10.28
2023-04-16T07:28:20.869Z,10.28
2023-04-16T07:30:50.415Z,10.30
2023-04-16T07:33:19.573Z,10.28
2023-04-16T07:35:49.025Z,10.32
2023-04-16T07:38:18.201Z,10.32
2023-04-16T07:40:49.133Z,10.35
2023-04-16T07:43:18.305Z,10.29
2023-04-16T07:45:47.843Z,10.21
2023-04-16T07:48:17.033Z,10.20
2023-04-16T07:50:46.638Z,10.03
2023-04-16T07:53:15.908Z,10.25
2023-04-16T07:55:45.409Z,10.20
2023-04-16T07:58:16.048Z,10.19
2023-04-16T08:00:45.776Z,10.28
2023-04-16T08:03:16.342Z,10.27
2023-04-16T08:05:46.026Z,10.36
2023-04-16T08:08:15.229Z,10.28
2023-04-16T08:10:44.742Z,10.30
2023-04-16T08:13:15.700Z,10.25
2023-04-16T08:15:45.186Z,10.05
2023-04-16T08:18:15.828Z,10.11
2023-04-16T08:20:45.537Z,10.03
2023-04-16T08:23:14.689Z,10.17
2023-04-16T08:25:44.254Z,10.22
2023-04-16T08:28:13.398Z,10.12
2023-04-16T08:30:45.741Z,10.11
2023-04-16T08:33:15.757Z,10.35
2023-04-16T08:35:45.311Z,10.39
2023-04-16T08:38:14.361Z,10.47
2023-04-16T08:40:43.950Z,10.52
2023-04-16T08:43:13.882Z,10.53
2023-04-16T08:45:44.808Z,10.64
2023-04-16T08:48:13.922Z,10.63
2023-04-16T08:50:43.569Z,10.68
2023-04-16T08:53:12.798Z,10.82
2023-04-16T08:55:42.886Z,10.85
2023-04-16T08:58:14.085Z,10.74
2023-04-16T09:00:46.262Z,10.86
2023-04-16T09:03:15.658Z,10.88
2023-04-16T09:05:45.302Z,10.74
2023-04-16T09:08:14.471Z,10.98
2023-04-16T09:10:44.311Z,10.63
2023-04-16T09:13:13.661Z,10.57
2023-04-16T09:15:44.638Z,10.91
2023-04-16T09:18:13.900Z,10.84
2023-04-16T09:20:43.310Z,10.80
2023-04-16T09:23:12.491Z,10.83
2023-04-16T09:25:42.024Z,11.07
2023-04-16T09:28:11.248Z,10.89
2023-04-16T09:30:41.254Z,10.77
2023-04-16T09:33:16.768Z,10.65
2023-04-16T09:35:46.601Z,10.86
2023-04-16T09:38:15.840Z,10.91
2023-04-16T09:40:45.302Z,10.86
2023-04-16T09:43:14.955Z,11.02
2023-04-16T09:45:51.346Z,10.88
2023-04-16T09:48:31.223Z,10.70
2023-04-16T09:51:00.818Z,10.84
2023-04-16T09:53:30.377Z,10.73
2023-04-16T09:56:00.157Z,10.87
2023-04-16T09:58:29.854Z,10.77
2023-04-16T10:01:02.258Z,10.78
2023-04-16T10:03:33.180Z,10.44
2023-04-16T10:06:03.612Z,10.63
2023-04-16T10:08:32.768Z,10.44
2023-04-16T10:11:02.209Z,10.70
2023-04-16T10:13:31.944Z,10.60
2023-04-16T10:16:01.501Z,10.88
2023-04-16T10:18:30.700Z,10.78
2023-04-16T10:21:01.648Z,10.74
2023-04-16T10:23:30.806Z,10.57
2023-04-16T10:26:00.507Z,11.00
2023-04-16T10:28:29.666Z,11.03
2023-04-16T10:30:59.366Z,10.61
2023-04-16T10:33:28.763Z,10.52
2023-04-16T10:36:12.540Z,10.86
2023-04-16T10:38:42.046Z,11.19
2023-04-16T10:41:11.587Z,11.02
2023-04-16T10:43:41.225Z,10.99
2023-04-16T10:46:20.288Z,11.01
2023-04-16T10:48:50.614Z,10.96
2023-04-16T10:51:32.280Z,10.90
2023-04-16T10:54:04.592Z,11.10
2023-04-16T10:56:34.322Z,11.19
2023-04-16T10:59:05.802Z,11.27
2023-04-16T11:01:35.796Z,11.25
2023-04-16T11:04:19.993Z,11.04
2023-04-16T11:07:03.173Z,11.14
2023-04-16T11:09:48.141Z,11.02
2023-04-16T11:12:18.924Z,11.48
2023-04-16T11:14:48.904Z,11.24
2023-04-16T11:17:18.615Z,11.48
2023-04-16T11:19:47.959Z,11.16
2023-04-16T11:22:19.314Z,11.23
2023-04-16T11:24:48.571Z,11.10
2023-04-16T11:27:18.006Z,11.37
2023-04-16T11:29:47.656Z,11.62
2023-04-16T11:32:22.033Z,11.30
2023-04-16T11:34:51.267Z,11.52
2023-04-16T11:37:23.620Z,11.45
2023-04-16T11:39:52.961Z,11.32
2023-04-16T11:42:24.021Z,11.12
2023-04-16T11:44:53.606Z,11.12
2023-04-16T11:47:23.544Z,11.26
2023-04-16T11:49:53.102Z,11.14
2023-04-16T11:52:30.634Z,11.14
2023-04-16T11:54:59.988Z,11.39
2023-04-16T11:57:29.879Z,11.70
2023-04-16T12:00:02.140Z,11.49
2023-04-16T12:02:36.935Z,11.28
2023-04-16T12:05:06.496Z,11.61
2023-04-16T12:07:46.893Z,11.58
2023-04-16T12:10:16.060Z,11.36
2023-04-16T12:12:45.474Z,11.78
2023-04-16T12:15:14.714Z,11.56
2023-04-16T12:17:44.221Z,11.55
2023-04-16T12:20:13.815Z,11.47
2023-04-16T12:22:47.385Z,11.61
2023-04-16T12:25:17.081Z,11.94
2023-04-16T12:27:48.575Z,11.70
2023-04-16T12:30:19.122Z,11.86
2023-04-16T12:32:49.107Z,11.65
2023-04-16T12:35:30.700Z,11.39
2023-04-16T12:38:01.666Z,11.64
2023-04-16T12:40:30.859Z,11.91
2023-04-16T12:43:00.314Z,12.00
2023-04-16T12:45:29.441Z,12.03
2023-04-16T12:47:59.026Z,12.03
2023-04-16T12:50:28.729Z,11.65
2023-04-16T12:52:58.237Z,11.94
2023-04-16T12:55:31.098Z,12.05
2023-04-16T12:58:00.641Z,11.66
2023-04-16T13:00:29.749Z,11.99
2023-04-16T13:02:59.371Z,12.13
2023-04-16T13:05:28.622Z,11.70
2023-04-16T13:07:58.114Z,11.77
2023-04-16T13:10:28.145Z,11.66
2023-04-16T13:12:59.032Z,12.06
2023-04-16T13:15:28.216Z,12.21
2023-04-16T13:17:57.800Z,12.13
2023-04-16T13:20:27.007Z,12.09
2023-04-16T13:22:56.853Z,12.17
2023-04-16T13:25:25.974Z,12.23
2023-04-16T13:27:55.580Z,12.18
2023-04-16T13:30:26.335Z,11.89
2023-04-16T13:32:55.924Z,12.18
2023-04-16T13:35:25.127Z,12.25
2023-04-16T13:37:54.594Z,12.03
2023-04-16T13:40:23.771Z,11.73
2023-04-16T13:42:53.336Z,11.86
2023-04-16T13:45:22.385Z,11.60
2023-04-16T13:47:53.423Z,11.92
2023-04-16T13:50:22.608Z,11.86
2023-04-16T13:52:52.087Z,12.14
2023-04-16T13:55:21.275Z,12.01
2023-04-16T13:57:52.582Z,12.14
2023-04-16T14:00:21.943Z,12.10
2023-04-16T14:02:51.680Z,11.63
2023-04-16T14:05:24.616Z,11.89
2023-04-16T14:07:56.042Z,11.77
2023-04-16T14:10:25.172Z,12.12
2023-04-16T14:12:54.639Z,11.90
2023-04-16T14:15:26.484Z,11.87
2023-04-16T14:17:55.958Z,11.71
2023-04-16T14:20:26.615Z,11.73
2023-04-16T14:22:56.220Z,11.95
2023-04-16T14:25:25.380Z,11.77
2023-04-16T14:27:55.267Z,11.85
2023-04-16T14:30:24.446Z,11.81
2023-04-16T14:32:54.048Z,11.67
2023-04-16T14:35:23.234Z,11.50
2023-04-16T14:37:54.208Z,11.57
2023-04-16T14:40:23.305Z,11.87
2023-04-16T14:42:52.877Z,11.50
2023-04-16T14:45:22.137Z,11.77
2023-04-16T14:47:51.688Z,11.95
2023-04-16T14:50:20.922Z,11.61
2023-04-16T14:52:50.458Z,11.43
2023-04-16T14:55:21.489Z,11.65
2023-04-16T14:57:51.397Z,11.55
2023-04-16T15:00:20.802Z,11.61
2023-04-16T15:02:50.363Z,11.36
2023-04-16T15:05:19.586Z,11.21
2023-04-16T15:07:49.084Z,11.23
2023-04-16T15:10:18.284Z,11.37
2023-04-16T15:12:49.249Z,11.44
2023-04-16T15:15:18.549Z,11.44
2023-04-16T15:17:48.222Z,11.42
2023-04-16T15:20:17.474Z,11.31
2023-04-16T15:22:47.026Z,11.57
2023-04-16T15:25:16.180Z,11.24
2023-04-16T15:27:45.670Z,11.23
2023-04-16T15:30:16.513Z,11.15
2023-04-16T15:32:46.096Z,11.01
2023-04-16T15:35:15.463Z,11.49
2023-04-16T15:37:46.704Z,11.10
2023-04-16T15:40:19.024Z,11.28
2023-04-16T15:42:48.482Z,11.09
2023-04-16T15:45:19.179Z,11.06
2023-04-16T15:47:51.464Z,11.31
2023-04-16T15:50:20.985Z,11.24
2023-04-16T15:52:50.596Z,11.16
2023-04-16T15:55:20.384Z,10.94
2023-04-16T15:57:49.863Z,10.83
2023-04-16T16:00:21.426Z,10.95
2023-04-16T16:02:51.025Z,10.85
2023-04-16T16:05:20.224Z,10.98
2023-04-16T16:07:49.623Z,11.13
2023-04-16T16:10:19.210Z,10.98
2023-04-16T16:12:49.011Z,10.76
2023-04-16T16:15:18.391Z,10.92
2023-04-16T16:17:49.420Z,11.06
2023-04-16T16:20:18.603Z,11.17
2023-04-16T16:22:48.499Z,11.11
2023-04-16T16:25:18.046Z,10.89
2023-04-16T16:27:47.498Z,10.61
2023-04-16T16:30:16.683Z,10.73
2023-04-16T16:32:46.393Z,10.68
2023-04-16T16:35:17.073Z,10.91
2023-04-16T16:37:46.545Z,10.87
2023-04-16T16:40:15.695Z,10.74
2023-04-16T16:42:45.152Z,10.90
2023-04-16T16:45:14.319Z,10.69
2023-04-16T16:47:43.880Z,10.78
2023-04-16T16:50:13.434Z,10.63
2023-04-16T16:52:44.441Z,10.62
2023-04-16T16:55:13.630Z,10.79
2023-04-16T16:57:43.131Z,10.69
2023-04-16T17:00:14.506Z,10.37
2023-04-16T17:02:44.424Z,10.48
2023-04-16T17:05:13.871Z,10.75
2023-04-16T17:07:44.715Z,10.77
2023-04-16T17:10:20.082Z,10.64
2023-04-16T17:12:49.780Z,10.53
2023-04-16T17:15:21.798Z,10.26
2023-04-16T17:17:51.634Z,10.16
2023-04-16T17:20:20.925Z,10.35
2023-04-16T17:22:51.864Z,10.55
2023-04-16T17:25:21.160Z,10.44
2023-04-16T17:27:50.585Z,10.35
2023-04-16T17:30:19.778Z,10.27
2023-04-16T17:32:49.323Z,10.20
2023-04-16T17:35:18.515Z,10.40
2023-04-16T17:37:47.986Z,10.26
2023-04-16T17:40:18.807Z,10.29
2023-04-16T17:42:49.317Z,10.37
2023-04-16T17:45:18.570Z,10.31
2023-04-16T17:47:48.156Z,10.15
2023-04-16T17:50:17.467Z,10.18
2023-04-16T17:52:47.454Z,10.19
2023-04-16T17:55:16.888Z,10.22
2023-04-16T17:57:47.861Z,10.18
2023-04-16T18:00:17.948Z,10.18
2023-04-16T18:02:47.685Z,10.09
2023-04-16T18:05:17.130Z,10.02
2023-04-16T18:07:47.183Z,9.95
2023-04-16T18:10:16.425Z,9.92
2023-04-16T18:12:47.368Z,9.39
2023-04-16T18:15:16.854Z,9.64
2023-04-16T18:17:46.384Z,9.38
2023-04-16T18:20:19.392Z,9.43
2023-04-16T18:22:48.868Z,9.48
2023-04-16T18:25:19.887Z,9.52
2023-04-16T18:27:56.588Z,9.58
2023-04-16T18:30:26.848Z,9.42
2023-04-16T18:33:25.325Z,9.56
2023-04-16T18:35:45.641Z,9.79
2023-04-16T18:38:15.183Z,9.72
2023-04-16T18:40:44.430Z,9.26
2023-04-16T18:43:16.085Z,9.38
2023-04-16T18:45:45.411Z,9.25
2023-04-16T18:48:15.030Z,9.55
2023-04-16T18:50:44.273Z,9.23
2023-04-16T18:53:13.818Z,9.31
2023-04-16T18:55:43.137Z,9.44
2023-04-16T18:58:12.762Z,9.26
2023-04-16T19:00:43.573Z,9.31
2023-04-16T19:03:13.262Z,9.27
2023-04-16T19:05:44.092Z,9.22
2023-04-16T19:08:13.665Z,9.33
2023-04-16T19:10:43.013Z,9.38
2023-04-16T19:13:12.514Z,9.43
2023-04-16T19:15:41.654Z,9.42
2023-04-16T19:18:12.971Z,9.12
2023-04-16T19:20:42.192Z,9.08
2023-04-16T19:23:11.836Z,9.09
2023-04-16T19:25:41.069Z,9.00
2023-04-16T19:28:10.620Z,8.97
2023-04-16T19:30:40.454Z,8.96
2023-04-16T19:33:10.141Z,8.91
2023-04-16T19:35:40.726Z,9.17
2023-04-16T19:38:11.018Z,8.74
2023-04-16T19:40:40.202Z,8.65
2023-04-16T19:43:09.753Z,8.79
2023-04-16T19:45:43.715Z,8.65
2023-04-16T19:48:13.286Z,8.68
2023-04-16T19:50:44.114Z,8.90
2023-04-16T19:53:13.678Z,8.72
2023-04-16T19:55:43.100Z,8.96
2023-04-16T19:58:14.634Z,8.64
2023-04-16T20:00:44.085Z,8.49
2023-04-16T20:03:13.641Z,8.33
2023-04-16T20:05:44.188Z,8.26
2023-04-16T20:08:13.680Z,8.29
2023-04-16T20:10:42.789Z,8.70
2023-04-16T20:13:13.845Z,8.84
2023-04-16T20:15:42.981Z,8.93
2023-04-16T20:18:12.993Z,8.78
2023-04-16T20:20:43.655Z,8.89
2023-04-16T20:23:13.192Z,8.94
2023-04-16T20:25:42.777Z,9.00
2023-04-16T20:28:12.254Z,8.99
2023-04-16T20:30:41.474Z,8.97
2023-04-16T20:33:11.049Z,8.94
2023-04-16T20:35:40.157Z,8.91
2023-04-16T20:38:11.185Z,8.91
2023-04-16T20:40:42.032Z,8.93
2023-04-16T20:43:14.454Z,8.85
2023-04-16T20:45:46.290Z,8.71
2023-04-16T20:48:15.786Z,8.69
2023-04-16T20:50:44.948Z,8.69
2023-04-16T20:53:16.008Z,8.76
2023-04-16T20:55:45.133Z,8.67
2023-04-16T20:58:14.594Z,8.82
2023-04-16T21:00:43.691Z,8.74
2023-04-16T21:03:13.316Z,8.76
2023-04-16T21:05:43.107Z,8.65
2023-04-16T21:08:12.565Z,8.66
2023-04-16T21:10:43.358Z,8.71
2023-04-16T21:13:12.824Z,8.79
2023-04-16T21:15:42.489Z,8.71
2023-04-16T21:18:12.256Z,8.70
2023-04-16T21:20:41.453Z,8.72
2023-04-16T21:23:11.035Z,8.70
2023-04-16T21:25:40.328Z,8.68
2023-04-16T21:28:11.246Z,8.71
2023-04-16T21:30:40.388Z,8.53
2023-04-16T21:33:11.962Z,8.60
2023-04-16T21:35:41.151Z,8.43
2023-04-16T21:38:10.637Z,8.54
2023-04-16T21:40:40.061Z,8.50
2023-04-16T21:43:10.984Z,8.42
2023-04-16T21:45:41.131Z,8.18
2023-04-16T21:48:10.652Z,8.56
2023-04-16T21:50:39.865Z,8.53
2023-04-16T21:53:09.258Z,8.42
2023-04-16T21:55:40.671Z,8.42
2023-04-16T21:58:11.623Z,8.35
2023-04-16T22:00:40.713Z,8.28
2023-04-16T22:03:12.597Z,8.36
2023-04-16T22:05:41.950Z,8.19
2023-04-16T22:10:46.433Z,8.51
2023-04-16T22:13:18.018Z,8.51
2023-04-16T22:15:47.285Z,8.42
2023-04-16T22:18:16.752Z,8.42
2023-04-16T22:20:47.290Z,8.21
2023-04-16T22:23:16.760Z,8.24
2023-04-16T22:25:46.034Z,8.49
2023-04-16T22:28:16.678Z,8.22
2023-04-16T22:30:47.308Z,8.32
2023-04-16T22:33:16.997Z,8.35
2023-04-16T22:35:46.262Z,8.38
2023-04-16T22:38:16.562Z,8.47
2023-04-16T22:40:45.668Z,8.52
2023-04-16T22:43:16.182Z,8.65
2023-04-16T22:45:46.945Z,8.50
2023-04-16T22:48:18.800Z,8.60
2023-04-16T22:50:48.708Z,8.69
2023-04-16T22:53:18.231Z,8.50
2023-04-16T22:55:47.410Z,8.67
2023-04-16T22:58:17.700Z,8.58
2023-04-16T23:00:47.750Z,8.32
2023-04-16T23:03:18.615Z,8.39
2023-04-16T23:05:47.873Z,8.58
2023-04-16T23:08:17.351Z,8.45
2023-04-16T23:10:46.527Z,8.48
2023-04-16T23:13:15.965Z,8.57
2023-04-16T23:15:46.077Z,8.54
2023-04-16T23:18:15.490Z,8.63
2023-04-16T23:20:46.004Z,8.64
2023-04-16T23:23:15.440Z,8.75
2023-04-16T23:25:44.616Z,8.67
2023-04-16T23:28:14.114Z,8.58
2023-04-16T23:30:43.264Z,8.37
2023-04-16T23:33:12.720Z,8.56
2023-04-16T23:35:41.884Z,8.47
2023-04-16T23:38:12.866Z,8.43
2023-04-16T23:40:41.993Z,8.39
2023-04-16T23:43:11.483Z,8.54
2023-04-16T23:45:40.629Z,8.25
2023-04-16T23:48:10.193Z,8.22
2023-04-16T23:50:39.352Z,8.35
2023-04-16T23:53:08.880Z,8.58
2023-04-16T23:55:39.510Z,8.55
2023-04-16T23:58:08.893Z,8.44
